Latest Coastal Weather Observations for Avalon

IDV60701

Issued at 1:35 pm EDT Thursday 23 October 2014 (issued every 10 minutes, with the page automatically refreshed every 10 minutes)

About coastal observations | Map of coastal stations | Coastal observations for VIC | Marine services | Other Formats
Station Details ID: 087113 Name: AVALON AIRPORT Lat: -38.03 Lon: 144.48 Height: 10.6 m
Data from the previous 72 hours. | See also: Recent months at Avalon
Date/Time
EDT
Temp

°C
Wind Pressure Rain
since 9am
mm
Weather Cloud Vis
km
Sea
Height
m
Swell
Dir
 
Speed
knots
Gust
knots
hPa Trend Height
m
Period
s
Dir
23/01:30pm 16.9 SSE 10 13 1018.8 - 0.0 - Cloudy 10 - - - -
23/01:00pm 16.3 SE 9 11 1019.1 - 0.0 - Cloudy 10 - - - -
23/12:30pm 16.0 ESE 8 11 1019.5 - 0.0 - Cloudy 10 - - - -
23/12:00pm 16.1 SE 8 11 1019.9 - 0.0 - Cloudy 10 - - - -
23/11:51am 15.7 ESE 8 11 1019.9 - 0.0 - Cloudy 10 - - - -
23/11:30am 15.6 SSE 7 10 1020.2 - 0.0 - Cloudy 10 - - - -
23/11:00am 15.1 SE 5 7 1020.2 - 0.0 - Cloudy 10 - - - -
23/10:59am 15.1 SE 6 8 1020.2 - 0.0 - Cloudy 10 - - - -
23/10:30am 15.3 ESE 7 9 1020.6 - 0.0 - Cloudy 10 - - - -
23/10:21am 15.2 SE 7 9 1020.7 - 0.0 - Cloudy 10 - - - -
23/10:00am 14.9 SE 7 9 1020.8 - 0.0 - Cloudy 10 - - - -
23/09:30am 14.4 S 6 8 1020.8 - 0.0 - Cloudy 10 - - - -
23/09:00am 14.0 S 9 11 1020.7 - 0.0 - Cloudy 9 - - - -
23/08:30am 14.4 S 10 13 1020.7 - 0.0 - Cloudy 10 - - - -
23/08:00am 14.5 SSW 12 15 1020.4 - 0.0 - Cloudy 10 - - - -
23/07:30am 14.6 S 9 11 1020.3 - 0.0 - Cloudy 10 - - - -
23/07:00am 14.5 S 9 12 1020.1 - 0.0 - Cloudy 10 - - - -
23/06:50am 14.6 S 7 10 1020.1 - 0.0 - Cloudy 10 - - - -
23/06:30am 14.7 SSW 9 11 1019.8 - 0.0 - Cloudy 10 - - - -
23/06:06am 14.6 SSW 9 11 1019.4 - 0.0 - Cloudy 10 - - - -
23/06:00am 14.6 SSW 10 13 1019.4 - 0.0 - Cloudy 10 - - - -
23/05:30am 14.6 SSW 12 15 1019.1 - 0.0 - Cloudy 10 - - - -
23/05:00am 14.7 SSW 11 14 1018.6 - 0.0 - Cloudy 10 - - - -
23/04:30am 14.8 SSW 11 13 1018.8 - 0.0 - Cloudy 10 - - - -
23/04:00am 14.9 SSW 9 12 1019.0 - 0.0 - Cloudy 9 - - - -
23/03:30am 14.9 SSW 8 11 1019.0 - 0.0 - Cloudy 10 - - - -
23/03:00am 14.9 SSW 9 13 1019.3 - 0.0 - Cloudy 10 - - - -
23/02:30am 14.9 SW 8 11 1019.1 - 0.0 - Cloudy 10 - - - -
23/02:00am 14.9 SW 10 13 1019.3 - 0.0 - Cloudy 10 - - - -
23/01:30am 14.9 SW 11 15 1019.3 - 0.0 - Cloudy 10 - - - -
23/01:00am 14.8 SW 12 16 1019.4 - 0.0 - Cloudy 10 - - - -
23/12:30am 14.5 SW 9 11 1019.3 - 0.0 - Partly cloudy 10 - - - -
23/12:00am 14.8 SSW 13 17 1019.0 - 0.0 Drizzle Cloudy 10 - - - -
 
Date/Time
EDT
Temp

°C
Wind Pressure Rain
since 9am
mm
Weather Cloud Vis
km
Sea
Height
m
Swell
Dir
 
Speed
knots
Gust
knots
hPa Trend Height
m
Period
s
Dir
22/11:30pm 15.3 SSW 10 13 1018.6 - 0.0 - Cloudy 10 - - - -
22/11:00pm 15.7 SSW 11 15 1018.0 - 0.0 - Partly cloudy 10 - - - -
22/10:30pm 15.9 SSW 15 18 1018.4 - 0.0 - - 10 - - - -
22/10:00pm 15.4 SSW 11 14 1018.4 - 0.0 - - 10 - - - -
22/09:30pm 16.2 SSW 12 16 1018.1 - 0.0 - Partly cloudy 10 - - - -
22/09:00pm 17.5 SSW 12 16 1017.9 - 0.0 - Cloudy 10 - - - -
22/08:30pm 19.0 SSW 13 18 1016.8 - 0.0 - Partly cloudy 10 - - - -
22/08:00pm 19.9 SSW 13 17 1015.9 - 0.0 - - 10 - - - -
22/07:30pm 20.6 SSW 15 20 1015.4 - 0.0 - - 10 - - - -
22/07:00pm 22.9 SSW 16 23 1014.6 - 0.0 - - 10 - - - -
22/06:30pm 26.1 SSW 15 20 1014.0 - 0.0 - - 10 - - - -
22/06:00pm 30.8 ESE 4 5 1013.7 - 0.0 - Cloudy 10 - - - -
22/05:30pm 29.6 ESE 5 6 1013.6 - 0.0 - - 10 - - - -
22/05:00pm 31.8 N 3 5 1013.7 - 0.0 - - 10 - - - -
22/04:30pm 30.5 S 5 6 1014.2 - 0.0 - Partly cloudy 10 - - - -
22/04:00pm 31.0 E 10 11 1014.2 - 0.0 - - 10 - - - -
22/03:30pm 31.5 E 9 12 1014.4 - 0.0 - - 10 - - - -
22/03:00pm 31.8 E 10 13 1014.6 - 0.0 - Cloudy 10 - - - -
22/02:30pm 31.3 E 12 15 1014.9 - 0.0 - - 10 - - - -
22/02:00pm 31.7 E 10 13 1015.2 - 0.0 - - 10 - - - -
22/01:30pm 31.6 SE 7 14 1015.5 - 0.0 - - 10 - - - -
22/01:00pm 32.5 NW 5 8 1015.7 - 0.0 - - 10 - - - -
22/12:30pm 32.9 W 2 6 1016.2 - 0.0 - - 10 - - - -
22/12:00pm 31.0 SW 5 7 1016.7 - 0.0 - Mostly clear 10 - - - -
22/11:30am 29.7 W 3 5 1017.3 - 0.0 - - 10 - - - -
22/11:00am 28.8 WSW 4 6 1017.7 - 0.0 - - 10 - - - -
22/10:30am 27.8 NNE 6 8 1018.2 - 0.0 - - 10 - - - -
22/10:00am 26.0 NNE 8 13 1018.4 - 0.0 - - 10 - - - -
22/09:30am 24.7 N 9 13 1018.5 - 0.0 - - 10 - - - -
22/09:00am 22.9 NNE 9 14 1018.2 - 0.0 - - 10 - - - -
22/08:30am 17.9 E 6 8 1018.5 - 0.0 - - 10 - - - -
22/08:00am 14.6 E 5 6 1018.5 - 0.0 - - 10 - - - -
22/07:30am 14.4 ENE 6 7 1018.6 - 0.0 - - 10 - - - -
22/07:00am 11.9 NE 6 7 1018.6 - 0.0 - - 10 - - - -
22/06:30am 10.7 NE 4 6 1018.8 - 0.0 - - 10 - - - -
22/06:00am 9.3 N 3 3 1018.9 - 0.0 - - 10 - - - -
22/05:30am 8.9 NNW 1 3 1018.7 - 0.0 - - 10 - - - -
22/05:00am 10.5 NE 6 7 1018.7 - 0.0 - - 10 - - - -
22/04:30am 10.5 ENE 6 7 1018.8 - 0.0 - - 10 - - - -
22/04:00am 10.0 NE 5 5 1019.1 - 0.0 - - 10 - - - -
22/03:30am 9.4 NE 3 4 1019.2 - 0.0 - - 10 - - - -
22/03:00am 9.0 CALM 0 0 1019.8 - 0.0 - - 7 - - - -
22/02:30am 9.9 WNW 3 5 1020.1 - 0.0 - - 10 - - - -
22/02:00am 11.2 N 3 5 1020.5 - 0.0 - - 10 - - - -
22/01:30am 11.1 NNE 1 4 1020.9 - 0.0 - - 10 - - - -
22/01:00am 13.2 E 5 5 1021.0 - 0.0 - - 10 - - - -
22/12:30am 12.6 E 5 6 1021.5 - 0.0 - - 10 - - - -
22/12:00am 12.8 E 5 6 1021.9 - 0.0 - Partly cloudy 10 - - - -
 
Date/Time
EDT
Temp

°C
Wind Pressure Rain
since 9am
mm
Weather Cloud Vis
km
Sea
Height
m
Swell
Dir
 
Speed
knots
Gust
knots
hPa Trend Height
m
Period
s
Dir
21/11:30pm 13.1 E 5 6 1022.3 - 0.0 - - 10 - - - -
21/11:00pm 13.0 ESE 7 8 1022.5 - 0.0 - - 10 - - - -
21/10:30pm 14.4 E 5 5 1022.8 - 0.0 - - 10 - - - -
21/10:00pm 15.5 E 6 7 1023.0 - 0.0 - - 10 - - - -
21/09:30pm 16.6 ESE 4 6 1023.0 - 0.0 - - 10 - - - -
21/09:00pm 16.9 WNW 1 4 1022.9 - 0.0 - - 10 - - - -
21/08:30pm 17.0 SE 2 4 1022.5 - 0.0 - - 10 - - - -
21/08:00pm 17.8 E 4 5 1022.4 - 0.0 - - 10 - - - -
21/07:30pm 18.2 ESE 6 7 1022.3 - 0.0 - - 10 - - - -
21/07:00pm 19.5 ESE 8 9 1022.1 - 0.0 - - 10 - - - -
21/06:30pm 21.1 ESE 10 13 1022.1 - 0.0 - - 10 - - - -
21/06:00pm 22.1 ESE 12 15 1022.3 - 0.0 - - 10 - - - -
21/05:30pm 23.1 ESE 14 17 1022.2 - 0.0 - - 10 - - - -
21/05:00pm 23.5 ESE 15 19 1022.3 - 0.0 - - 10 - - - -
21/04:30pm 23.5 ESE 16 20 1022.4 - 0.0 - - 10 - - - -
21/04:00pm 23.2 ESE 15 19 1022.7 - 0.0 - - 10 - - - -
21/03:30pm 23.8 ESE 16 19 1023.1 - 0.0 - - 10 - - - -
21/03:00pm 23.2 ESE 15 18 1023.6 - 0.0 - - 10 - - - -
21/02:30pm 22.1 SE 16 19 1024.1 - 0.0 - - 10 - - - -
21/02:00pm 22.4 SE 15 19 1024.7 - 0.0 - - 10 - - - -
21/01:30pm 21.2 SE 14 18 1025.2 - 0.0 - - 10 - - - -
21/01:00pm 20.8 SE 13 16 1025.8 - 0.0 - - 10 - - - -
21/12:30pm 19.1 ESE 13 16 1026.0 - 0.0 - - 10 - - - -
21/12:00pm 18.8 ESE 13 16 1026.1 - 0.0 - - 10 - - - -
21/11:30am 17.7 ESE 11 15 1026.4 - 0.0 - - 10 - - - -
21/11:00am 16.8 ESE 10 14 1026.7 - 0.0 - - 10 - - - -
21/10:30am 15.5 E 10 13 1027.1 - 0.0 - - 10 - - - -
21/10:00am 14.8 E 11 13 1027.3 - 0.0 - - 10 - - - -
21/09:30am 13.7 E 11 13 1027.4 - 0.0 - - 10 - - - -
21/09:00am 12.8 E 7 9 1027.5 - 0.0 - - 10 - - - -
21/08:30am 11.8 E 5 7 1027.3 - 0.0 - - 10 - - - -
21/08:00am 9.1 CALM 0 0 1027.0 - 0.0 - - 10 - - - -
21/07:30am 6.9 CALM 0 0 1026.8 - 0.0 - - 10 - - - -
21/07:00am 5.8 NW 1 3 1026.6 - 0.0 - - 10 - - - -
21/06:30am 4.8 NW 3 5 1026.3 - 0.0 - - 10 - - - -
21/06:00am 5.9 CALM 0 0 1026.1 - 0.0 - - 10 - - - -
21/05:30am 5.7 NNW 3 3 1025.9 - 0.0 - - 10 - - - -
21/05:00am 6.5 NNE 4 5 1026.2 - 0.0 - - 10 - - - -
21/04:30am 8.6 E 6 7 1025.9 - 0.0 - - 10 - - - -
21/04:00am 9.2 E 6 7 1026.0 - 0.0 - - 10 - - - -
21/03:30am 10.3 ESE 9 11 1026.4 - 0.0 - - 10 - - - -
21/03:00am 11.1 ESE 12 15 1026.6 - 0.0 - - 10 - - - -
21/02:30am 11.5 ESE 16 20 1026.7 - 0.0 - - 10 - - - -
21/02:00am 11.5 ESE 16 22 1026.9 - 0.0 - - 10 - - - -
21/01:30am 11.9 ESE 16 21 1027.3 - 0.0 - - 10 - - - -
21/01:00am 12.1 ESE 18 24 1027.8 - 0.0 - - 10 - - - -
21/12:30am 12.2 ESE 18 25 1028.0 - 0.0 - - 10 - - - -
21/12:00am 12.4 ESE 18 25 1028.3 - 0.0 - - 10 - - - -
 
Date/Time
EDT
Temp

°C
Wind Pressure Rain
since 9am
mm
Weather Cloud Vis
km
Sea
Height
m
Swell
Dir
 
Speed
knots
Gust
knots
hPa Trend Height
m
Period
s
Dir
20/11:30pm 12.3 SE 15 20 1028.5 - 0.0 - - 10 - - - -
20/11:00pm 12.5 SE 15 21 1028.8 - 0.0 - - 10 - - - -
20/10:30pm 12.3 SE 11 16 1028.9 - 0.0 - - 10 - - - -
20/10:00pm 13.1 E 16 22 1028.7 - 0.0 - - 10 - - - -
20/09:30pm 12.9 SE 12 14 1028.8 - 0.0 - - 10 - - - -
20/09:00pm 13.2 SE 12 15 1028.7 - 0.0 - - 10 - - - -
20/08:30pm 13.5 SSE 13 18 1028.3 - 0.0 - - 10 - - - -
20/08:00pm 13.7 SSE 13 17 1028.0 - 0.0 - - 10 - - - -
20/07:30pm 14.4 SSE 13 18 1028.0 - 0.0 - - 10 - - - -
20/07:00pm 15.3 SSE 15 19 1027.8 - 0.0 - - 10 - - - -
20/06:30pm 16.0 SSE 16 20 1027.8 - 0.0 - - 10 - - - -
20/06:00pm 17.0 SSE 17 20 1028.0 - 0.0 - - 10 - - - -
20/05:30pm 17.7 SSE 15 19 1028.0 - 0.0 - - 10 - - - -
20/05:00pm 17.9 SSE 15 20 1028.0 - 0.0 - - 10 - - - -
20/04:30pm 18.0 S 15 21 1028.3 - 0.0 - - 10 - - - -
20/04:00pm 17.9 S 15 21 1028.4 - 0.0 - - 10 - - - -
20/03:30pm 17.9 SSE 16 22 1028.7 - 0.0 - - 10 - - - -
20/03:00pm 18.9 S 15 22 1028.8 - 0.0 - - 10 - - - -
20/02:30pm 17.9 SSE 12 16 1029.1 - 0.0 - - 10 - - - -
20/02:00pm 17.3 SE 12 18 1029.5 - 0.0 - - 10 - - - -

Other Formats:

Comma delimited format used in spreadsheet applications
http://www.bom.gov.au/fwo/IDV60701/IDV60701.94854.axf

JavaScript Object Notation format (JSON) in row-major order
http://www.bom.gov.au/fwo/IDV60701/IDV60701.94854.json